sensor_id;sensor_type;location;lat;lon;timestamp;temperature;humidity
66257;DHT22;53049;43.446;3.698;2023-05-07T00:02:24;16.60;1.00
66257;DHT22;53049;43.446;3.698;2023-05-07T00:04:50;16.60;1.00
66257;DHT22;53049;43.446;3.698;2023-05-07T00:07:17;16.60;1.00
66257;DHT22;53049;43.446;3.698;2023-05-07T00:09:43;16.50;1.00
66257;DHT22;53049;43.446;3.698;2023-05-07T00:12:09;16.50;1.00
66257;DHT22;53049;43.446;3.698;2023-05-07T00:14:34;16.50;1.00
66257;DHT22;53049;43.446;3.698;2023-05-07T00:17:00;16.50;1.00
66257;DHT22;53049;43.446;3.698;2023-05-07T00:19:26;16.50;1.00
66257;DHT22;53049;43.446;3.698;2023-05-07T00:21:51;16.50;1.00
66257;DHT22;53049;43.446;3.698;2023-05-07T00:24:19;16.40;1.00
66257;DHT22;53049;43.446;3.698;2023-05-07T00:26:45;16.40;1.00
66257;DHT22;53049;43.446;3.698;2023-05-07T00:29:10;16.40;1.00
66257;DHT22;53049;43.446;3.698;2023-05-07T00:31:36;16.50;1.00
66257;DHT22;53049;43.446;3.698;2023-05-07T00:34:02;16.40;1.00
66257;DHT22;53049;43.446;3.698;2023-05-07T00:36:28;16.40;1.00
66257;DHT22;53049;43.446;3.698;2023-05-07T00:38:54;16.40;1.00
66257;DHT22;53049;43.446;3.698;2023-05-07T00:41:20;16.50;1.00
66257;DHT22;53049;43.446;3.698;2023-05-07T00:43:46;16.40;1.00
66257;DHT22;53049;43.446;3.698;2023-05-07T00:46:13;16.50;1.00
66257;DHT22;53049;43.446;3.698;2023-05-07T00:48:39;16.50;1.00
66257;DHT22;53049;43.446;3.698;2023-05-07T00:51:05;16.50;1.00
66257;DHT22;53049;43.446;3.698;2023-05-07T00:53:30;16.50;1.00
66257;DHT22;53049;43.446;3.698;2023-05-07T00:55:56;16.50;1.00
66257;DHT22;53049;43.446;3.698;2023-05-07T00:58:22;16.40;1.00
66257;DHT22;53049;43.446;3.698;2023-05-07T01:00:48;16.50;1.00
66257;DHT22;53049;43.446;3.698;2023-05-07T01:03:15;16.50;1.00
66257;DHT22;53049;43.446;3.698;2023-05-07T01:05:41;16.50;1.00
66257;DHT22;53049;43.446;3.698;2023-05-07T01:08:08;16.50;1.00
66257;DHT22;53049;43.446;3.698;2023-05-07T01:10:34;16.50;1.00
66257;DHT22;53049;43.446;3.698;2023-05-07T01:13:00;16.50;1.00
66257;DHT22;53049;43.446;3.698;2023-05-07T01:15:26;16.60;1.00
66257;DHT22;53049;43.446;3.698;2023-05-07T01:17:52;16.60;1.00
66257;DHT22;53049;43.446;3.698;2023-05-07T01:20:18;16.70;1.00
66257;DHT22;53049;43.446;3.698;2023-05-07T01:22:45;16.70;1.00
66257;DHT22;53049;43.446;3.698;2023-05-07T01:25:11;16.60;1.00
66257;DHT22;53049;43.446;3.698;2023-05-07T01:27:37;16.60;1.00
66257;DHT22;53049;43.446;3.698;2023-05-07T01:30:06;16.60;1.00
66257;DHT22;53049;43.446;3.698;2023-05-07T01:35:07;16.70;1.00
66257;DHT22;53049;43.446;3.698;2023-05-07T01:37:33;16.80;1.00
66257;DHT22;53049;43.446;3.698;2023-05-07T01:40:00;16.90;1.00
66257;DHT22;53049;43.446;3.698;2023-05-07T01:42:26;16.90;1.00
66257;DHT22;53049;43.446;3.698;2023-05-07T01:44:52;16.90;1.00
66257;DHT22;53049;43.446;3.698;2023-05-07T01:47:17;16.80;1.00
66257;DHT22;53049;43.446;3.698;2023-05-07T01:49:44;16.80;1.00
66257;DHT22;53049;43.446;3.698;2023-05-07T01:52:10;16.80;1.00
66257;DHT22;53049;43.446;3.698;2023-05-07T01:54:37;16.80;1.00
66257;DHT22;53049;43.446;3.698;2023-05-07T01:57:02;16.70;1.00
66257;DHT22;53049;43.446;3.698;2023-05-07T01:59:28;16.70;1.00
66257;DHT22;53049;43.446;3.698;2023-05-07T02:01:54;16.70;1.00
66257;DHT22;53049;43.446;3.698;2023-05-07T02:04:19;16.60;1.00
66257;DHT22;53049;43.446;3.698;2023-05-07T02:06:45;16.60;1.00
66257;DHT22;53049;43.446;3.698;2023-05-07T02:09:11;16.60;1.00
66257;DHT22;53049;43.446;3.698;2023-05-07T02:11:37;16.60;1.00
66257;DHT22;53049;43.446;3.698;2023-05-07T02:14:03;16.60;1.00
66257;DHT22;53049;43.446;3.698;2023-05-07T02:16:28;16.60;1.00
66257;DHT22;53049;43.446;3.698;2023-05-07T02:18:54;16.50;1.00
66257;DHT22;53049;43.446;3.698;2023-05-07T02:21:20;16.60;1.00
66257;DHT22;53049;43.446;3.698;2023-05-07T02:23:45;16.50;1.00
66257;DHT22;53049;43.446;3.698;2023-05-07T02:26:11;16.60;1.00
66257;DHT22;53049;43.446;3.698;2023-05-07T02:28:37;16.60;1.00
66257;DHT22;53049;43.446;3.698;2023-05-07T02:31:03;16.60;1.00
66257;DHT22;53049;43.446;3.698;2023-05-07T02:33:29;16.60;1.00
66257;DHT22;53049;43.446;3.698;2023-05-07T02:35:56;16.60;1.00
66257;DHT22;53049;43.446;3.698;2023-05-07T02:38:22;16.60;1.00
66257;DHT22;53049;43.446;3.698;2023-05-07T02:40:47;16.60;1.00
66257;DHT22;53049;43.446;3.698;2023-05-07T02:43:13;16.60;1.00
66257;DHT22;53049;43.446;3.698;2023-05-07T02:45:39;16.50;1.00
66257;DHT22;53049;43.446;3.698;2023-05-07T02:48:05;16.50;1.00
66257;DHT22;53049;43.446;3.698;2023-05-07T02:50:31;16.40;1.00
66257;DHT22;53049;43.446;3.698;2023-05-07T02:52:58;16.30;1.00
66257;DHT22;53049;43.446;3.698;2023-05-07T02:55:24;16.30;1.00
66257;DHT22;53049;43.446;3.698;2023-05-07T02:57:49;16.30;1.00
66257;DHT22;53049;43.446;3.698;2023-05-07T03:00:17;16.30;1.00
66257;DHT22;53049;43.446;3.698;2023-05-07T03:02:44;16.30;1.00
66257;DHT22;53049;43.446;3.698;2023-05-07T03:05:10;16.30;1.00
66257;DHT22;53049;43.446;3.698;2023-05-07T03:07:36;16.30;1.00
66257;DHT22;53049;43.446;3.698;2023-05-07T03:10:02;16.40;1.00
66257;DHT22;53049;43.446;3.698;2023-05-07T03:12:28;16.50;1.00
66257;DHT22;53049;43.446;3.698;2023-05-07T03:14:53;16.50;1.00
66257;DHT22;53049;43.446;3.698;2023-05-07T03:17:21;16.50;1.00
66257;DHT22;53049;43.446;3.698;2023-05-07T03:19:46;16.50;1.00
66257;DHT22;53049;43.446;3.698;2023-05-07T03:22:12;16.40;1.00
66257;DHT22;53049;43.446;3.698;2023-05-07T03:24:38;16.40;1.00
66257;DHT22;53049;43.446;3.698;2023-05-07T03:27:03;16.30;1.00
66257;DHT22;53049;43.446;3.698;2023-05-07T03:29:29;16.30;1.00
66257;DHT22;53049;43.446;3.698;2023-05-07T03:31:55;16.30;1.00
66257;DHT22;53049;43.446;3.698;2023-05-07T03:34:20;16.20;1.00
66257;DHT22;53049;43.446;3.698;2023-05-07T03:36:48;16.20;1.00
66257;DHT22;53049;43.446;3.698;2023-05-07T03:39:14;16.20;1.00
66257;DHT22;53049;43.446;3.698;2023-05-07T03:41:40;16.20;1.00
66257;DHT22;53049;43.446;3.698;2023-05-07T03:44:06;16.10;1.00
66257;DHT22;53049;43.446;3.698;2023-05-07T03:46:32;16.20;1.00
66257;DHT22;53049;43.446;3.698;2023-05-07T03:48:58;16.20;1.00
66257;DHT22;53049;43.446;3.698;2023-05-07T03:51:24;16.20;1.00
66257;DHT22;53049;43.446;3.698;2023-05-07T03:53:50;16.20;1.00
66257;DHT22;53049;43.446;3.698;2023-05-07T03:56:18;16.10;1.00
66257;DHT22;53049;43.446;3.698;2023-05-07T03:58:44;16.10;1.00
66257;DHT22;53049;43.446;3.698;2023-05-07T04:01:10;16.10;1.00
66257;DHT22;53049;43.446;3.698;2023-05-07T04:03:36;16.10;1.00
66257;DHT22;53049;43.446;3.698;2023-05-07T04:06:01;16.20;1.00
66257;DHT22;53049;43.446;3.698;2023-05-07T04:08:27;16.10;1.00
66257;DHT22;53049;43.446;3.698;2023-05-07T04:10:57;16.20;1.00
66257;DHT22;53049;43.446;3.698;2023-05-07T04:13:24;16.20;1.00
66257;DHT22;53049;43.446;3.698;2023-05-07T04:15:51;16.20;1.00
66257;DHT22;53049;43.446;3.698;2023-05-07T04:18:16;16.20;1.00
66257;DHT22;53049;43.446;3.698;2023-05-07T04:20:42;16.20;1.00
66257;DHT22;53049;43.446;3.698;2023-05-07T04:23:08;16.20;1.00
66257;DHT22;53049;43.446;3.698;2023-05-07T04:25:34;16.20;1.00
66257;DHT22;53049;43.446;3.698;2023-05-07T04:28:00;16.20;1.00
66257;DHT22;53049;43.446;3.698;2023-05-07T04:30:26;16.20;1.00
66257;DHT22;53049;43.446;3.698;2023-05-07T04:32:52;16.20;1.00
66257;DHT22;53049;43.446;3.698;2023-05-07T04:35:18;16.20;1.00
66257;DHT22;53049;43.446;3.698;2023-05-07T04:37:43;16.10;1.00
66257;DHT22;53049;43.446;3.698;2023-05-07T04:40:09;16.10;1.00
66257;DHT22;53049;43.446;3.698;2023-05-07T04:42:35;16.20;1.00
66257;DHT22;53049;43.446;3.698;2023-05-07T04:45:02;16.20;1.00
66257;DHT22;53049;43.446;3.698;2023-05-07T04:47:27;16.30;1.00
66257;DHT22;53049;43.446;3.698;2023-05-07T04:49:53;16.30;1.00
66257;DHT22;53049;43.446;3.698;2023-05-07T04:52:19;16.30;1.00
66257;DHT22;53049;43.446;3.698;2023-05-07T04:54:45;16.40;1.00
66257;DHT22;53049;43.446;3.698;2023-05-07T04:57:10;16.50;1.00
66257;DHT22;53049;43.446;3.698;2023-05-07T04:59:36;16.50;1.00
66257;DHT22;53049;43.446;3.698;2023-05-07T05:02:02;16.40;1.00
66257;DHT22;53049;43.446;3.698;2023-05-07T05:04:29;16.50;1.00
66257;DHT22;53049;43.446;3.698;2023-05-07T05:06:55;16.60;1.00
66257;DHT22;53049;43.446;3.698;2023-05-07T05:09:21;16.70;1.00
66257;DHT22;53049;43.446;3.698;2023-05-07T05:11:47;16.70;1.00
66257;DHT22;53049;43.446;3.698;2023-05-07T05:14:12;16.70;1.00
66257;DHT22;53049;43.446;3.698;2023-05-07T05:16:38;16.80;1.00
66257;DHT22;53049;43.446;3.698;2023-05-07T05:19:04;16.80;1.00
66257;DHT22;53049;43.446;3.698;2023-05-07T05:21:30;16.80;1.00
66257;DHT22;53049;43.446;3.698;2023-05-07T05:23:56;16.80;1.00
66257;DHT22;53049;43.446;3.698;2023-05-07T05:26:21;16.80;1.00
66257;DHT22;53049;43.446;3.698;2023-05-07T05:28:47;16.90;1.00
66257;DHT22;53049;43.446;3.698;2023-05-07T05:31:13;16.90;1.00
66257;DHT22;53049;43.446;3.698;2023-05-07T05:33:39;16.90;1.00
66257;DHT22;53049;43.446;3.698;2023-05-07T05:36:06;17.00;1.00
66257;DHT22;53049;43.446;3.698;2023-05-07T05:38:31;16.90;1.00
66257;DHT22;53049;43.446;3.698;2023-05-07T05:40:57;17.00;1.00
66257;DHT22;53049;43.446;3.698;2023-05-07T05:43:23;17.00;1.00
66257;DHT22;53049;43.446;3.698;2023-05-07T05:45:48;17.10;1.00
66257;DHT22;53049;43.446;3.698;2023-05-07T05:48:14;17.20;1.00
66257;DHT22;53049;43.446;3.698;2023-05-07T05:50:41;17.20;1.00
66257;DHT22;53049;43.446;3.698;2023-05-07T05:53:07;17.20;1.00
66257;DHT22;53049;43.446;3.698;2023-05-07T05:55:32;17.30;1.00
66257;DHT22;53049;43.446;3.698;2023-05-07T05:58:00;17.30;1.00
66257;DHT22;53049;43.446;3.698;2023-05-07T06:00:26;17.30;1.00
66257;DHT22;53049;43.446;3.698;2023-05-07T06:02:52;17.40;1.00
66257;DHT22;53049;43.446;3.698;2023-05-07T06:05:17;17.40;1.00
66257;DHT22;53049;43.446;3.698;2023-05-07T06:07:43;17.40;1.00
66257;DHT22;53049;43.446;3.698;2023-05-07T06:10:09;17.40;1.00
66257;DHT22;53049;43.446;3.698;2023-05-07T06:12:35;17.40;1.00
66257;DHT22;53049;43.446;3.698;2023-05-07T06:15:00;17.40;1.00
66257;DHT22;53049;43.446;3.698;2023-05-07T06:17:27;17.40;1.00
66257;DHT22;53049;43.446;3.698;2023-05-07T06:19:52;17.50;1.00
66257;DHT22;53049;43.446;3.698;2023-05-07T06:22:18;17.50;1.00
66257;DHT22;53049;43.446;3.698;2023-05-07T06:24:44;17.50;1.00
66257;DHT22;53049;43.446;3.698;2023-05-07T06:27:09;17.60;1.00
66257;DHT22;53049;43.446;3.698;2023-05-07T06:29:35;17.60;1.00
66257;DHT22;53049;43.446;3.698;2023-05-07T06:32:08;17.70;1.00
66257;DHT22;53049;43.446;3.698;2023-05-07T06:34:34;17.70;1.00
66257;DHT22;53049;43.446;3.698;2023-05-07T06:36:59;17.80;1.00
66257;DHT22;53049;43.446;3.698;2023-05-07T06:39:25;17.90;1.00
66257;DHT22;53049;43.446;3.698;2023-05-07T06:41:51;18.00;1.00
66257;DHT22;53049;43.446;3.698;2023-05-07T06:44:17;18.00;1.00
66257;DHT22;53049;43.446;3.698;2023-05-07T06:46:42;18.00;1.00
66257;DHT22;53049;43.446;3.698;2023-05-07T06:49:08;18.00;1.00
66257;DHT22;53049;43.446;3.698;2023-05-07T06:51:34;18.00;1.00
66257;DHT22;53049;43.446;3.698;2023-05-07T06:54:00;18.00;1.00
66257;DHT22;53049;43.446;3.698;2023-05-07T06:56:25;18.00;1.00
66257;DHT22;53049;43.446;3.698;2023-05-07T06:58:51;18.10;1.00
66257;DHT22;53049;43.446;3.698;2023-05-07T07:01:16;18.10;1.00
66257;DHT22;53049;43.446;3.698;2023-05-07T07:03:42;18.20;1.00
66257;DHT22;53049;43.446;3.698;2023-05-07T07:06:08;18.20;1.00
66257;DHT22;53049;43.446;3.698;2023-05-07T07:08:33;18.30;1.00
66257;DHT22;53049;43.446;3.698;2023-05-07T07:11:00;18.40;1.00
66257;DHT22;53049;43.446;3.698;2023-05-07T07:13:25;18.50;1.00
66257;DHT22;53049;43.446;3.698;2023-05-07T07:15:52;18.50;1.00
66257;DHT22;53049;43.446;3.698;2023-05-07T07:18:18;18.50;1.00
66257;DHT22;53049;43.446;3.698;2023-05-07T07:20:44;18.50;1.00
66257;DHT22;53049;43.446;3.698;2023-05-07T07:23:10;18.50;1.00
66257;DHT22;53049;43.446;3.698;2023-05-07T07:25:35;18.70;1.00
66257;DHT22;53049;43.446;3.698;2023-05-07T07:28:01;18.70;1.00
66257;DHT22;53049;43.446;3.698;2023-05-07T07:30:27;18.90;1.00
66257;DHT22;53049;43.446;3.698;2023-05-07T07:32:53;19.10;1.00
66257;DHT22;53049;43.446;3.698;2023-05-07T07:35:19;19.20;1.00
66257;DHT22;53049;43.446;3.698;2023-05-07T07:37:44;19.60;1.00
66257;DHT22;53049;43.446;3.698;2023-05-07T07:40:11;21.80;1.00
66257;DHT22;53049;43.446;3.698;2023-05-07T07:42:37;24.00;1.00
66257;DHT22;53049;43.446;3.698;2023-05-07T07:45:03;27.30;1.00
66257;DHT22;53049;43.446;3.698;2023-05-07T07:47:28;29.60;1.00
66257;DHT22;53049;43.446;3.698;2023-05-07T07:49:54;27.00;1.00
66257;DHT22;53049;43.446;3.698;2023-05-07T07:52:21;25.40;1.00
66257;DHT22;53049;43.446;3.698;2023-05-07T07:54:46;25.80;1.00
66257;DHT22;53049;43.446;3.698;2023-05-07T07:57:12;28.30;1.00
66257;DHT22;53049;43.446;3.698;2023-05-07T07:59:38;31.90;1.00
66257;DHT22;53049;43.446;3.698;2023-05-07T08:02:03;33.60;1.00
66257;DHT22;53049;43.446;3.698;2023-05-07T08:04:32;34.60;1.00
66257;DHT22;53049;43.446;3.698;2023-05-07T08:06:58;34.80;1.00
66257;DHT22;53049;43.446;3.698;2023-05-07T08:09:24;36.20;1.00
66257;DHT22;53049;43.446;3.698;2023-05-07T08:11:49;36.70;1.00
66257;DHT22;53049;43.446;3.698;2023-05-07T08:14:15;36.60;1.00
66257;DHT22;53049;43.446;3.698;2023-05-07T08:16:41;32.70;1.00
66257;DHT22;53049;43.446;3.698;2023-05-07T08:19:07;36.00;1.00
66257;DHT22;53049;43.446;3.698;2023-05-07T08:21:32;36.60;1.00
66257;DHT22;53049;43.446;3.698;2023-05-07T08:23:58;36.40;1.00
66257;DHT22;53049;43.446;3.698;2023-05-07T08:26:24;37.00;1.00
66257;DHT22;53049;43.446;3.698;2023-05-07T08:28:49;33.10;1.00
66257;DHT22;53049;43.446;3.698;2023-05-07T08:31:15;29.40;1.00
66257;DHT22;53049;43.446;3.698;2023-05-07T08:33:41;27.40;1.00
66257;DHT22;53049;43.446;3.698;2023-05-07T08:36:07;26.50;1.00
66257;DHT22;53049;43.446;3.698;2023-05-07T08:38:32;25.60;1.00
66257;DHT22;53049;43.446;3.698;2023-05-07T08:40:58;25.00;1.00
66257;DHT22;53049;43.446;3.698;2023-05-07T08:43:26;25.20;1.00
66257;DHT22;53049;43.446;3.698;2023-05-07T08:45:54;25.50;1.00
66257;DHT22;53049;43.446;3.698;2023-05-07T08:48:24;25.80;1.00
66257;DHT22;53049;43.446;3.698;2023-05-07T08:50:50;25.50;1.00
66257;DHT22;53049;43.446;3.698;2023-05-07T08:53:17;25.60;1.00
66257;DHT22;53049;43.446;3.698;2023-05-07T08:55:43;26.00;1.00
66257;DHT22;53049;43.446;3.698;2023-05-07T08:58:08;26.30;1.00
66257;DHT22;53049;43.446;3.698;2023-05-07T09:00:36;26.30;1.00
66257;DHT22;53049;43.446;3.698;2023-05-07T09:03:03;25.60;1.00
66257;DHT22;53049;43.446;3.698;2023-05-07T09:05:28;25.40;1.00
66257;DHT22;53049;43.446;3.698;2023-05-07T09:07:54;25.10;1.00
66257;DHT22;53049;43.446;3.698;2023-05-07T09:10:21;24.90;1.00
66257;DHT22;53049;43.446;3.698;2023-05-07T09:12:47;24.90;1.00
66257;DHT22;53049;43.446;3.698;2023-05-07T09:15:13;25.20;1.00
66257;DHT22;53049;43.446;3.698;2023-05-07T09:17:39;25.80;1.00
66257;DHT22;53049;43.446;3.698;2023-05-07T09:20:06;25.50;1.00
66257;DHT22;53049;43.446;3.698;2023-05-07T09:22:33;25.70;1.00
66257;DHT22;53049;43.446;3.698;2023-05-07T09:24:59;25.60;1.00
66257;DHT22;53049;43.446;3.698;2023-05-07T09:27:25;25.40;1.00
66257;DHT22;53049;43.446;3.698;2023-05-07T09:29:51;25.50;1.00
66257;DHT22;53049;43.446;3.698;2023-05-07T09:32:17;25.60;1.00
66257;DHT22;53049;43.446;3.698;2023-05-07T09:34:43;26.40;1.00
66257;DHT22;53049;43.446;3.698;2023-05-07T09:37:10;26.90;1.00
66257;DHT22;53049;43.446;3.698;2023-05-07T09:39:46;26.30;1.00
66257;DHT22;53049;43.446;3.698;2023-05-07T09:42:12;25.40;1.00
66257;DHT22;53049;43.446;3.698;2023-05-07T09:44:38;25.80;1.00
66257;DHT22;53049;43.446;3.698;2023-05-07T09:47:07;25.60;1.00
66257;DHT22;53049;43.446;3.698;2023-05-07T09:49:36;25.90;1.00
66257;DHT22;53049;43.446;3.698;2023-05-07T09:52:04;26.50;1.00
66257;DHT22;53049;43.446;3.698;2023-05-07T09:54:32;26.60;1.00
66257;DHT22;53049;43.446;3.698;2023-05-07T09:57:01;26.80;1.00
66257;DHT22;53049;43.446;3.698;2023-05-07T09:59:28;26.80;1.00
66257;DHT22;53049;43.446;3.698;2023-05-07T10:01:57;27.40;1.00
66257;DHT22;53049;43.446;3.698;2023-05-07T10:04:25;27.30;1.00
66257;DHT22;53049;43.446;3.698;2023-05-07T10:06:51;27.50;1.00
66257;DHT22;53049;43.446;3.698;2023-05-07T10:09:17;27.00;1.00
66257;DHT22;53049;43.446;3.698;2023-05-07T10:11:44;26.60;1.00
66257;DHT22;53049;43.446;3.698;2023-05-07T10:14:11;25.90;1.00
66257;DHT22;53049;43.446;3.698;2023-05-07T10:16:37;25.90;1.00
66257;DHT22;53049;43.446;3.698;2023-05-07T10:19:07;26.20;1.00
66257;DHT22;53049;43.446;3.698;2023-05-07T10:21:53;25.90;1.00
66257;DHT22;53049;43.446;3.698;2023-05-07T10:24:26;26.40;1.00
66257;DHT22;53049;43.446;3.698;2023-05-07T10:26:53;26.10;1.00
66257;DHT22;53049;43.446;3.698;2023-05-07T10:34:40;24.90;1.00
66257;DHT22;53049;43.446;3.698;2023-05-07T10:37:07;24.70;1.00
66257;DHT22;53049;43.446;3.698;2023-05-07T10:39:34;24.80;1.00
66257;DHT22;53049;43.446;3.698;2023-05-07T10:42:14;25.00;1.00
66257;DHT22;53049;43.446;3.698;2023-05-07T10:44:40;25.20;1.00
66257;DHT22;53049;43.446;3.698;2023-05-07T10:49:35;25.30;1.00
66257;DHT22;53049;43.446;3.698;2023-05-07T10:52:17;25.40;1.00
66257;DHT22;53049;43.446;3.698;2023-05-07T10:54:44;25.60;1.00
66257;DHT22;53049;43.446;3.698;2023-05-07T10:57:33;25.50;1.00
66257;DHT22;53049;43.446;3.698;2023-05-07T10:59:59;25.60;1.00
66257;DHT22;53049;43.446;3.698;2023-05-07T11:03:27;25.70;1.00
66257;DHT22;53049;43.446;3.698;2023-05-07T11:05:34;25.90;1.00
66257;DHT22;53049;43.446;3.698;2023-05-07T11:08:01;25.80;1.00
66257;DHT22;53049;43.446;3.698;2023-05-07T11:10:52;25.70;1.00
66257;DHT22;53049;43.446;3.698;2023-05-07T11:13:48;25.60;1.00
66257;DHT22;53049;43.446;3.698;2023-05-07T11:16:21;25.50;1.00
66257;DHT22;53049;43.446;3.698;2023-05-07T11:18:55;25.50;1.00
66257;DHT22;53049;43.446;3.698;2023-05-07T11:21:41;25.50;1.00
66257;DHT22;53049;43.446;3.698;2023-05-07T11:24:08;25.40;1.00
66257;DHT22;53049;43.446;3.698;2023-05-07T11:29:13;25.40;1.00
66257;DHT22;53049;43.446;3.698;2023-05-07T11:31:39;25.30;1.00
66257;DHT22;53049;43.446;3.698;2023-05-07T11:34:05;24.90;1.00
66257;DHT22;53049;43.446;3.698;2023-05-07T11:36:33;25.00;1.00
66257;DHT22;53049;43.446;3.698;2023-05-07T11:38:58;25.20;1.00
66257;DHT22;53049;43.446;3.698;2023-05-07T11:41:44;25.30;1.00
66257;DHT22;53049;43.446;3.698;2023-05-07T11:44:10;25.10;1.00
66257;DHT22;53049;43.446;3.698;2023-05-07T11:46:36;25.10;1.00
66257;DHT22;53049;43.446;3.698;2023-05-07T11:49:01;25.10;1.00
66257;DHT22;53049;43.446;3.698;2023-05-07T11:51:27;25.10;1.00
66257;DHT22;53049;43.446;3.698;2023-05-07T11:53:53;25.10;1.00
66257;DHT22;53049;43.446;3.698;2023-05-07T11:56:19;25.40;1.00
66257;DHT22;53049;43.446;3.698;2023-05-07T11:58:47;25.40;1.00
66257;DHT22;53049;43.446;3.698;2023-05-07T12:01:13;25.50;1.00
66257;DHT22;53049;43.446;3.698;2023-05-07T12:03:42;25.50;1.00
66257;DHT22;53049;43.446;3.698;2023-05-07T12:06:09;25.20;1.00
66257;DHT22;53049;43.446;3.698;2023-05-07T12:08:37;25.00;1.00
66257;DHT22;53049;43.446;3.698;2023-05-07T12:11:03;25.10;1.00
66257;DHT22;53049;43.446;3.698;2023-05-07T12:13:32;25.20;1.00
66257;DHT22;53049;43.446;3.698;2023-05-07T12:15:57;25.30;1.00
66257;DHT22;53049;43.446;3.698;2023-05-07T12:18:23;25.50;1.00
66257;DHT22;53049;43.446;3.698;2023-05-07T12:20:50;25.60;1.00
66257;DHT22;53049;43.446;3.698;2023-05-07T12:23:16;25.60;1.00
66257;DHT22;53049;43.446;3.698;2023-05-07T12:25:43;25.30;1.00
66257;DHT22;53049;43.446;3.698;2023-05-07T12:28:18;25.40;1.00
66257;DHT22;53049;43.446;3.698;2023-05-07T12:30:46;25.30;1.00
66257;DHT22;53049;43.446;3.698;2023-05-07T12:33:16;25.40;1.00
66257;DHT22;53049;43.446;3.698;2023-05-07T12:35:43;25.60;1.00
66257;DHT22;53049;43.446;3.698;2023-05-07T12:38:13;25.80;1.00
66257;DHT22;53049;43.446;3.698;2023-05-07T12:40:44;25.70;1.00
66257;DHT22;53049;43.446;3.698;2023-05-07T12:43:20;25.30;1.00
66257;DHT22;53049;43.446;3.698;2023-05-07T12:45:46;25.20;1.00
66257;DHT22;53049;43.446;3.698;2023-05-07T12:48:12;25.20;1.00
66257;DHT22;53049;43.446;3.698;2023-05-07T12:50:38;25.10;1.00
66257;DHT22;53049;43.446;3.698;2023-05-07T12:53:05;25.00;1.00
66257;DHT22;53049;43.446;3.698;2023-05-07T12:55:32;25.10;1.00
66257;DHT22;53049;43.446;3.698;2023-05-07T12:58:01;24.90;1.00
66257;DHT22;53049;43.446;3.698;2023-05-07T13:00:38;25.00;1.00
66257;DHT22;53049;43.446;3.698;2023-05-07T13:03:04;25.10;1.00
66257;DHT22;53049;43.446;3.698;2023-05-07T13:05:31;25.20;1.00
66257;DHT22;53049;43.446;3.698;2023-05-07T13:07:57;25.30;1.00
66257;DHT22;53049;43.446;3.698;2023-05-07T13:10:24;25.50;1.00
66257;DHT22;53049;43.446;3.698;2023-05-07T13:12:50;25.50;1.00
66257;DHT22;53049;43.446;3.698;2023-05-07T13:15:17;25.30;1.00
66257;DHT22;53049;43.446;3.698;2023-05-07T13:17:42;25.20;1.00
66257;DHT22;53049;43.446;3.698;2023-05-07T13:20:10;25.00;1.00
66257;DHT22;53049;43.446;3.698;2023-05-07T13:22:36;24.80;1.00
66257;DHT22;53049;43.446;3.698;2023-05-07T13:25:02;24.70;1.00
66257;DHT22;53049;43.446;3.698;2023-05-07T13:27:28;24.60;1.00
66257;DHT22;53049;43.446;3.698;2023-05-07T13:29:56;24.50;1.00
66257;DHT22;53049;43.446;3.698;2023-05-07T13:32:21;24.60;1.00
66257;DHT22;53049;43.446;3.698;2023-05-07T13:34:47;24.60;1.00
66257;DHT22;53049;43.446;3.698;2023-05-07T13:37:13;24.70;1.00
66257;DHT22;53049;43.446;3.698;2023-05-07T13:39:38;24.80;1.00
66257;DHT22;53049;43.446;3.698;2023-05-07T13:42:04;25.00;1.00
66257;DHT22;53049;43.446;3.698;2023-05-07T13:44:30;25.00;1.00
66257;DHT22;53049;43.446;3.698;2023-05-07T13:46:55;25.10;1.00
66257;DHT22;53049;43.446;3.698;2023-05-07T13:49:21;25.00;1.00
66257;DHT22;53049;43.446;3.698;2023-05-07T13:51:47;25.10;1.00
66257;DHT22;53049;43.446;3.698;2023-05-07T13:54:12;25.20;1.00
66257;DHT22;53049;43.446;3.698;2023-05-07T13:56:39;25.20;1.00
66257;DHT22;53049;43.446;3.698;2023-05-07T13:59:04;25.30;1.00
66257;DHT22;53049;43.446;3.698;2023-05-07T14:01:31;25.50;1.00
66257;DHT22;53049;43.446;3.698;2023-05-07T14:03:56;25.50;1.00
66257;DHT22;53049;43.446;3.698;2023-05-07T14:06:23;25.50;1.00
66257;DHT22;53049;43.446;3.698;2023-05-07T14:08:49;25.50;1.00
66257;DHT22;53049;43.446;3.698;2023-05-07T14:11:14;25.50;1.00
66257;DHT22;53049;43.446;3.698;2023-05-07T14:13:40;25.60;1.00
66257;DHT22;53049;43.446;3.698;2023-05-07T14:16:06;25.60;1.00
66257;DHT22;53049;43.446;3.698;2023-05-07T14:18:31;25.60;1.00
66257;DHT22;53049;43.446;3.698;2023-05-07T14:20:59;25.70;1.00
66257;DHT22;53049;43.446;3.698;2023-05-07T14:23:24;25.60;1.00
66257;DHT22;53049;43.446;3.698;2023-05-07T14:25:52;25.50;1.00
66257;DHT22;53049;43.446;3.698;2023-05-07T14:28:18;25.50;1.00
66257;DHT22;53049;43.446;3.698;2023-05-07T14:30:44;25.50;1.00
66257;DHT22;53049;43.446;3.698;2023-05-07T14:33:10;25.50;1.00
66257;DHT22;53049;43.446;3.698;2023-05-07T14:35:35;25.40;1.00
66257;DHT22;53049;43.446;3.698;2023-05-07T14:38:01;25.50;1.00
66257;DHT22;53049;43.446;3.698;2023-05-07T14:40:26;25.30;1.00
66257;DHT22;53049;43.446;3.698;2023-05-07T14:42:52;25.40;1.00
66257;DHT22;53049;43.446;3.698;2023-05-07T14:45:18;25.40;1.00
66257;DHT22;53049;43.446;3.698;2023-05-07T14:47:43;25.30;1.00
66257;DHT22;53049;43.446;3.698;2023-05-07T14:50:09;25.40;1.00
66257;DHT22;53049;43.446;3.698;2023-05-07T14:52:35;25.50;1.00
66257;DHT22;53049;43.446;3.698;2023-05-07T14:55:02;25.60;1.00
66257;DHT22;53049;43.446;3.698;2023-05-07T14:57:28;25.60;1.00
66257;DHT22;53049;43.446;3.698;2023-05-07T14:59:53;25.50;1.00
66257;DHT22;53049;43.446;3.698;2023-05-07T15:02:19;25.60;1.00
66257;DHT22;53049;43.446;3.698;2023-05-07T15:04:45;25.70;1.00
66257;DHT22;53049;43.446;3.698;2023-05-07T15:07:12;25.70;1.00
66257;DHT22;53049;43.446;3.698;2023-05-07T15:09:41;25.50;1.00
66257;DHT22;53049;43.446;3.698;2023-05-07T15:12:07;25.40;1.00
66257;DHT22;53049;43.446;3.698;2023-05-07T15:14:33;25.40;1.00
66257;DHT22;53049;43.446;3.698;2023-05-07T15:16:58;25.30;1.00
66257;DHT22;53049;43.446;3.698;2023-05-07T15:19:24;25.30;1.00
66257;DHT22;53049;43.446;3.698;2023-05-07T15:21:55;25.30;1.00
66257;DHT22;53049;43.446;3.698;2023-05-07T15:24:22;25.30;1.00
66257;DHT22;53049;43.446;3.698;2023-05-07T15:26:48;25.20;1.00
66257;DHT22;53049;43.446;3.698;2023-05-07T15:29:13;25.10;1.00
66257;DHT22;53049;43.446;3.698;2023-05-07T15:31:39;25.10;1.00
66257;DHT22;53049;43.446;3.698;2023-05-07T15:34:05;25.00;1.00
66257;DHT22;53049;43.446;3.698;2023-05-07T15:36:30;25.10;1.00
66257;DHT22;53049;43.446;3.698;2023-05-07T15:38:57;24.90;1.00
66257;DHT22;53049;43.446;3.698;2023-05-07T15:41:22;24.80;1.00
66257;DHT22;53049;43.446;3.698;2023-05-07T15:43:50;24.80;1.00
66257;DHT22;53049;43.446;3.698;2023-05-07T15:46:21;24.80;1.00
66257;DHT22;53049;43.446;3.698;2023-05-07T15:48:48;24.80;1.00
66257;DHT22;53049;43.446;3.698;2023-05-07T15:51:14;24.80;1.00
66257;DHT22;53049;43.446;3.698;2023-05-07T15:53:40;24.80;1.00
66257;DHT22;53049;43.446;3.698;2023-05-07T15:56:06;24.80;1.00